Olympic Scout — WDD7216 — position and weather

sailwx.info

Track history (hours):
 
Tides and Currents Weather Stations Pressure Air Temp Water Temp Dewpoint Dewpoint Depression Visibility Wind Speed Wind Dir Waves Ship Positions

Olympic Scout

Owner: Harley Marine Services, Inc., Seattle, WA. More information available from US FCC via Universal Licensing System and Coast Guard Vessel Documentation Center.

Last reported at 2017-Oct-17 02:00 UTC. Time now 2017-Oct-17 02:21 UTC.
Position N 47°29' W 122°26'.

Length 31 m; draft 0.3 m.

Type: Tug. MMSI: 366998440.

Date/timePositionNaut miles runAvg speedWind from/ knotsBaromVisibWave heightAir tempDewpointWater temp
2017-Oct-17 02:00N 47°29' W 122°26'3 6.8
2017-Oct-17 01:30N 47°33' W 122°27'3 6.4
2017-Oct-17 01:00N 47°36' W 122°25'3 5.5
2017-Oct-17 00:30N 47°36' W 122°21'1 2.9
2017-Oct-17 00:00N 47°34' W 122°21'0 0.3
2017-Oct-16 23:30N 47°35' W 122°21'1 1.7
2017-Oct-16 23:00N 47°35' W 122°21'1 2.1
2017-Oct-16 22:30N 47°34' W 122°21'0 0.0
2017-Oct-16 21:58N 47°34' W 122°21'0 0.0
2017-Oct-16 21:28N 47°34' W 122°21'0 0.0
2017-Oct-16 20:52N 47°34' W 122°21'0 0.0
2017-Oct-16 20:28N 47°34' W 122°21'0 0.0
2017-Oct-16 19:59N 47°34' W 122°21'0 0.0
2017-Oct-16 19:28N 47°34' W 122°21'0 0.0
2017-Oct-16 18:52N 47°34' W 122°21'0 0.0
2017-Oct-16 18:28N 47°34' W 122°21'0 0.0
2017-Oct-16 17:58N 47°34' W 122°21'0 0.0
2017-Oct-16 17:19N 47°34' W 122°21'0 0.0
2017-Oct-16 16:49N 47°34' W 122°21'0 0.0
2017-Oct-16 16:28N 47°34' W 122°21'0 0.0
2017-Oct-16 15:55N 47°34' W 122°21'0 0.0
2017-Oct-16 14:58N 47°34' W 122°21'0 0.0
2017-Oct-16 13:47N 47°34' W 122°21'0 0.0
2017-Oct-16 13:29N 47°34' W 122°21'0 0.0
2017-Oct-16 12:58N 47°34' W 122°21'0 0.0
2017-Oct-16 12:28N 47°34' W 122°21'0 0.0
2017-Oct-16 11:58N 47°34' W 122°21'0 0.0
2017-Oct-16 11:28N 47°34' W 122°21'0 0.0
2017-Oct-16 10:55N 47°34' W 122°21'0 0.0
2017-Oct-16 10:28N 47°34' W 122°21'0 0.0
2017-Oct-16 09:58N 47°34' W 122°21'0 0.0
2017-Oct-16 09:28N 47°34' W 122°21'0 0.0
2017-Oct-16 08:58N 47°34' W 122°21'0 0.0
2017-Oct-16 08:29N 47°34' W 122°21'0 0.0
2017-Oct-16 07:55N 47°34' W 122°21'0 0.0
2017-Oct-16 07:29N 47°34' W 122°21'0 0.0
2017-Oct-16 06:58N 47°34' W 122°21'0 0.0
2017-Oct-16 06:28N 47°34' W 122°21'0 0.0
2017-Oct-16 05:58N 47°34' W 122°21'0 0.0
2017-Oct-16 05:28N 47°34' W 122°21'0 0.0
2017-Oct-16 04:58N 47°34' W 122°21'0 0.0
2017-Oct-16 04:28N 47°34' W 122°21'0 0.0
2017-Oct-16 03:59N 47°34' W 122°21'0 0.0
2017-Oct-16 03:07N 47°34' W 122°21'0 0.0
2017-Oct-16 02:53N 47°34' W 122°21'0 0.0
2017-Oct-16 02:23N 47°34' W 122°21'0 0.0
2017-Oct-16 01:44N 47°34' W 122°21'0 0.0
2017-Oct-16 01:04N 47°34' W 122°21'0 0.0
2017-Oct-16 00:40N 47°34' W 122°21'0 0.0
2017-Oct-16 00:25N 47°34' W 122°21'0 0.0
2017-Oct-15 23:29N 47°34' W 122°21'0 0.0
2017-Oct-15 22:46N 47°34' W 122°21'0 0.0
2017-Oct-15 22:28N 47°34' W 122°21'0 0.0
2017-Oct-15 21:55N 47°34' W 122°21'0 0.0
2017-Oct-15 21:16N 47°34' W 122°21'0 0.0
2017-Oct-15 20:58N 47°34' W 122°21'0 0.0
2017-Oct-15 20:25N 47°34' W 122°21'0 0.0
2017-Oct-15 19:58N 47°34' W 122°21'0 0.0
2017-Oct-15 18:55N 47°34' W 122°21'0 0.0
2017-Oct-15 18:22N 47°34' W 122°21'0 0.0
2017-Oct-15 17:55N 47°34' W 122°21'0 0.0
2017-Oct-15 17:28N 47°34' W 122°21'0 0.0
2017-Oct-15 16:58N 47°34' W 122°21'0 0.0
2017-Oct-15 16:28N 47°34' W 122°21'0 0.0
2017-Oct-15 15:58N 47°34' W 122°21'0 0.0
2017-Oct-15 15:28N 47°34' W 122°21'0 0.0
2017-Oct-15 14:58N 47°34' W 122°21'0 0.0
2017-Oct-15 13:58N 47°34' W 122°21'0 0.0
2017-Oct-15 13:28N 47°34' W 122°21'0 0.0
2017-Oct-15 12:58N 47°34' W 122°21'0 0.0
2017-Oct-15 12:28N 47°34' W 122°21'0 0.0
2017-Oct-15 11:58N 47°34' W 122°21'0 0.0
2017-Oct-15 11:28N 47°34' W 122°21'0 0.0
2017-Oct-15 10:58N 47°34' W 122°21'0 0.0
2017-Oct-15 10:28N 47°34' W 122°21'0 0.0
2017-Oct-15 09:58N 47°34' W 122°21'0 0.0
2017-Oct-15 09:28N 47°34' W 122°21'0 0.0
2017-Oct-15 08:58N 47°34' W 122°21'0 0.0
2017-Oct-15 08:28N 47°34' W 122°21'0 0.0
2017-Oct-15 07:58N 47°34' W 122°21'0 0.0
2017-Oct-15 07:28N 47°34' W 122°21'0 0.0
2017-Oct-15 06:58N 47°34' W 122°21'0 0.0
2017-Oct-15 06:28N 47°34' W 122°21'0 0.0
2017-Oct-15 05:58N 47°34' W 122°21'0 0.0
2017-Oct-15 05:22N 47°34' W 122°21'0 0.0
2017-Oct-15 04:52N 47°34' W 122°21'0 0.0
2017-Oct-15 04:14N 47°34' W 122°21'0 0.0
2017-Oct-15 03:44N 47°34' W 122°21'0 0.0
2017-Oct-15 03:28N 47°34' W 122°21'0 0.0
2017-Oct-15 02:59N 47°34' W 122°21'0 0.0
2017-Oct-15 02:22N 47°34' W 122°21'0 0.0
2017-Oct-15 01:52N 47°34' W 122°21'0 0.0
2017-Oct-15 01:28N 47°34' W 122°21'0 0.0
2017-Oct-15 00:55N 47°34' W 122°21'0 0.0
2017-Oct-15 00:28N 47°34' W 122°21'0 0.0
2017-Oct-14 23:55N 47°34' W 122°21'0 0.0
2017-Oct-14 23:29N 47°34' W 122°21'0 0.0
2017-Oct-14 22:58N 47°34' W 122°21'0 0.0
2017-Oct-14 22:19N 47°34' W 122°21'0 0.0
2017-Oct-14 21:58N 47°34' W 122°21'0 0.0
2017-Oct-14 21:17N 47°34' W 122°21'0 0.0
2017-Oct-14 20:58N 47°34' W 122°21'0 0.0
2017-Oct-14 20:29N 47°34' W 122°21'0 0.0
2017-Oct-14 19:58N 47°34' W 122°21'0 0.0
2017-Oct-14 19:28N 47°34' W 122°21'0 0.0
2017-Oct-14 18:55N 47°34' W 122°21'0 0.0
2017-Oct-14 18:28N 47°34' W 122°21'0 0.0
2017-Oct-14 17:58N 47°34' W 122°21'0 0.0
2017-Oct-14 17:28N 47°34' W 122°21'0 0.0
2017-Oct-14 16:58N 47°34' W 122°21'0 0.0
2017-Oct-14 16:25N 47°34' W 122°21'0 0.0
2017-Oct-14 15:34N 47°34' W 122°21'0 0.0
2017-Oct-14 15:10N 47°34' W 122°21'0 0.0
2017-Oct-14 14:49N 47°34' W 122°21'0 0.0
2017-Oct-14 14:22N 47°34' W 122°21'0 0.0
2017-Oct-14 13:50N 47°34' W 122°21'0 0.0
2017-Oct-14 13:25N 47°34' W 122°21'0 0.0
2017-Oct-14 12:58N 47°34' W 122°21'0 0.0
2017-Oct-14 12:28N 47°34' W 122°21'0 0.0
2017-Oct-14 11:58N 47°34' W 122°21'0 0.0
2017-Oct-14 11:28N 47°34' W 122°21'0 0.0
2017-Oct-14 10:52N 47°34' W 122°21'0 0.0
2017-Oct-14 10:22N 47°34' W 122°21'0 0.0
2017-Oct-14 09:58N 47°34' W 122°21'0 0.0
2017-Oct-14 09:28N 47°34' W 122°21'0 0.0
2017-Oct-14 08:52N 47°34' W 122°21'0 0.0
2017-Oct-14 08:28N 47°34' W 122°21'0 0.0
2017-Oct-14 07:59N 47°34' W 122°21'0 0.0
2017-Oct-14 07:28N 47°34' W 122°21'0 0.0
2017-Oct-14 06:58N 47°34' W 122°21'0 0.0
2017-Oct-14 06:28N 47°34' W 122°21'0 0.1
2017-Oct-14 05:55N 47°34' W 122°21'0 0.1
2017-Oct-14 05:28N 47°34' W 122°21'0 0.0
2017-Oct-14 04:55N 47°34' W 122°21'0 0.0
2017-Oct-14 04:28N 47°34' W 122°21'0 0.0
2017-Oct-14 03:59N 47°34' W 122°21'0 0.0
2017-Oct-14 03:28N 47°34' W 122°21'0 0.0
2017-Oct-14 02:59N 47°34' W 122°21'0 0.0
2017-Oct-14 02:28N 47°34' W 122°21'0 0.0
2017-Oct-13 23:16N 47°34' W 122°21'0 0.0
2017-Oct-13 22:58N 47°34' W 122°21'0 0.0
2017-Oct-13 22:28N 47°34' W 122°21'0 0.0
2017-Oct-13 21:58N 47°34' W 122°21'0 0.0
2017-Oct-13 21:28N 47°34' W 122°21'0 0.0
2017-Oct-13 20:58N 47°34' W 122°21'0 0.0
2017-Oct-13 20:28N 47°34' W 122°21'0 0.0
2017-Oct-13 19:58N 47°34' W 122°21'0 0.0
2017-Oct-13 19:29N 47°34' W 122°21'0 0.0
2017-Oct-13 18:58N 47°34' W 122°21'0 0.0
2017-Oct-13 18:29N 47°34' W 122°21'0 0.0
2017-Oct-13 17:58N 47°34' W 122°21'0 0.0
2017-Oct-13 17:25N 47°34' W 122°21'0 0.2
2017-Oct-13 16:58N 47°34' W 122°21'0 0.0
2017-Oct-13 16:28N 47°34' W 122°21'0 0.0
2017-Oct-13 15:59N 47°34' W 122°21'0 0.0
2017-Oct-13 15:28N 47°34' W 122°21'0 0.1
2017-Oct-13 15:00N 47°34' W 122°21'1 1.0
2017-Oct-13 14:30N 47°35' W 122°21'0 0.0
2017-Oct-13 14:00N 47°35' W 122°21'0 0.0
2017-Oct-13 13:30N 47°35' W 122°21'0 0.0
2017-Oct-13 13:00N 47°35' W 122°21'0 0.0
2017-Oct-13 12:30N 47°35' W 122°21'0 0.1
2017-Oct-13 12:00N 47°35' W 122°21'0 0.1
2017-Oct-13 11:30N 47°35' W 122°21'0 0.1
2017-Oct-13 11:00N 47°35' W 122°21'0 0.0
2017-Oct-13 10:30N 47°35' W 122°21'0 0.0
2017-Oct-13 10:00N 47°35' W 122°21'0 0.2
2017-Oct-13 09:30N 47°35' W 122°21'1 2.2
2017-Oct-13 09:00N 47°36' W 122°22'3 5.8
2017-Oct-13 08:31N 47°35' W 122°26'4 7.1
2017-Oct-13 08:00N 47°31' W 122°25'4 7.1
2017-Oct-13 07:30N 47°28' W 122°24'4 7.2
2017-Oct-13 07:00N 47°25' W 122°22'3 6.0
2017-Oct-13 06:30N 47°22' W 122°23'3 6.7
2017-Oct-13 06:00N 47°19' W 122°26'2 4.3
2017-Oct-13 05:30N 47°17' W 122°26'1 2.7
2017-Oct-13 05:00N 47°17' W 122°24'0 0.9
2017-Oct-13 04:30N 47°17' W 122°23'0 0.0
2017-Oct-13 04:00N 47°17' W 122°23'0 0.0
2017-Oct-13 03:30N 47°17' W 122°23'0 0.0
2017-Oct-13 03:00N 47°17' W 122°23'0 0.0
2017-Oct-13 02:30N 47°17' W 122°23'0 0.0
2017-Oct-13 02:00N 47°17' W 122°23'0 0.0
2017-Oct-13 01:30N 47°17' W 122°23'0 0.0
2017-Oct-13 01:00N 47°17' W 122°23'0 0.0
2017-Oct-13 00:29N 47°17' W 122°23'0 0.0
2017-Oct-12 23:56N 47°17' W 122°23'0 0.1
2017-Oct-12 23:30N 47°17' W 122°23'0 0.0
2017-Oct-12 22:59N 47°17' W 122°23'0 0.0
2017-Oct-12 22:30N 47°17' W 122°23'0 0.0
2017-Oct-12 22:00N 47°17' W 122°23'0 0.0
2017-Oct-12 21:30N 47°17' W 122°23'0 0.0
2017-Oct-12 20:59N 47°17' W 122°23'0 0.0
2017-Oct-12 20:29N 47°17' W 122°23'1 1.3
2017-Oct-12 20:00N 47°17' W 122°24'0 0.8
2017-Oct-12 19:30N 47°17' W 122°25'0 0.1
2017-Oct-12 19:00N 47°17' W 122°25'0 0.1
2017-Oct-12 18:30N 47°17' W 122°25'0 0.0
2017-Oct-12 18:00N 47°17' W 122°25'0 0.0
2017-Oct-12 17:30N 47°17' W 122°25'0 0.0
2017-Oct-12 17:00N 47°17' W 122°25'0 0.0
2017-Oct-12 16:30N 47°17' W 122°25'0 0.0
2017-Oct-12 16:00N 47°17' W 122°25'0 0.0
2017-Oct-12 15:30N 47°17' W 122°25'0 0.0
2017-Oct-12 15:00N 47°17' W 122°25'0 0.0
2017-Oct-12 14:30N 47°17' W 122°25'0 0.0
2017-Oct-12 14:00N 47°17' W 122°25'0 0.1
2017-Oct-12 13:30N 47°17' W 122°25'0 0.1
2017-Oct-12 13:00N 47°17' W 122°25'0 0.0
2017-Oct-12 12:30N 47°17' W 122°25'0 0.0
2017-Oct-12 12:00N 47°17' W 122°25'0 0.0
2017-Oct-12 11:30N 47°17' W 122°25'0 0.0
2017-Oct-12 11:00N 47°17' W 122°25'0 0.0
2017-Oct-12 10:30N 47°17' W 122°25'0 0.0
2017-Oct-12 10:00N 47°17' W 122°25'0 0.1
2017-Oct-12 09:30N 47°17' W 122°25'0 0.9
2017-Oct-12 09:00N 47°17' W 122°25'1 1.4
2017-Oct-12 08:30N 47°16' W 122°25'0 0.0
2017-Oct-12 08:00N 47°16' W 122°25'0 0.1
2017-Oct-12 07:30N 47°16' W 122°25'0 0.1
2017-Oct-12 07:00N 47°16' W 122°25'0 0.1
2017-Oct-12 06:30N 47°16' W 122°25'0 0.0
2017-Oct-12 06:00N 47°16' W 122°25'0 0.1
2017-Oct-12 05:30N 47°16' W 122°25'0 0.1
2017-Oct-12 05:00N 47°16' W 122°25'0 0.1
2017-Oct-12 04:30N 47°16' W 122°25'0 0.1
2017-Oct-12 04:00N 47°16' W 122°25'0 0.0
2017-Oct-12 03:30N 47°16' W 122°25'0 0.0
2017-Oct-12 03:00N 47°16' W 122°25'0 0.1
2017-Oct-12 02:30N 47°16' W 122°25'0 0.0
2017-Oct-12 02:00N 47°16' W 122°25'0 0.1
2017-Oct-12 01:30N 47°16' W 122°25'0 0.0
2017-Oct-12 00:59N 47°16' W 122°25'1 1.2
2017-Oct-12 00:30N 47°16' W 122°25'2 3.3
2017-Oct-12 00:00N 47°16' W 122°23'0 1.0
2017-Oct-11 23:30N 47°16' W 122°24'0 0.3
2017-Oct-11 23:00N 47°16' W 122°24'0 0.0
2017-Oct-11 22:31N 47°16' W 122°24'0 0.0
2017-Oct-11 21:58N 47°16' W 122°24'0 0.0
2017-Oct-11 21:31N 47°16' W 122°24'0 0.0
2017-Oct-11 21:01N 47°16' W 122°24'1 1.1
2017-Oct-11 20:28N 47°16' W 122°23'0 0.0
2017-Oct-11 19:58N 47°16' W 122°23'0 0.0
2017-Oct-11 19:28N 47°16' W 122°23'0 0.0
2017-Oct-11 18:58N 47°16' W 122°23'0 0.0
2017-Oct-11 18:28N 47°16' W 122°23'0 0.0
2017-Oct-11 17:58N 47°16' W 122°23'0 0.0
2017-Oct-11 17:28N 47°16' W 122°23'0 0.0
2017-Oct-11 16:58N 47°16' W 122°23'0 0.0
2017-Oct-11 00:00N 47°16' W 122°23'0 0.0
2017-Oct-10 23:30N 47°16' W 122°23'0 0.0
2017-Oct-10 23:00N 47°16' W 122°23'0 0.0
2017-Oct-10 22:30N 47°16' W 122°23'0 0.0
2017-Oct-10 22:00N 47°16' W 122°23'1 1.5
2017-Oct-10 21:26N 47°16' W 122°24'0 0.0
2017-Oct-10 20:59N 47°16' W 122°24'0 0.0
2017-Oct-10 20:29N 47°16' W 122°24'0 0.0
2017-Oct-10 19:56N 47°16' W 122°24'0 0.0
2017-Oct-10 19:29N 47°16' W 122°24'0 0.0
2017-Oct-10 18:56N 47°16' W 122°24'0 0.0
2017-Oct-10 18:29N 47°16' W 122°24'0 0.0
2017-Oct-10 17:59N 47°16' W 122°24'0 0.0
2017-Oct-10 17:29N 47°16' W 122°24'1 1.3
2017-Oct-10 16:50N 47°16' W 122°23'0 0.0
2017-Oct-10 16:26N 47°16' W 122°23'0 0.0
2017-Oct-10 15:47N 47°16' W 122°23'0 0.0
2017-Oct-10 15:20N 47°16' W 122°23'0 0.0
2017-Oct-10 14:53N 47°16' W 122°23'0 0.0
2017-Oct-10 13:44N 47°16' W 122°23'0 0.0
2017-Oct-10 13:25N 47°16' W 122°23'0 0.0
2017-Oct-10 12:44N 47°16' W 122°23'0 0.0
2017-Oct-10 12:29N 47°16' W 122°23'0 0.0
2017-Oct-10 11:59N 47°16' W 122°23'0 0.0
2017-Oct-10 11:28N 47°16' W 122°23'0 0.0
2017-Oct-10 10:17N 47°16' W 122°23'0 0.0
2017-Oct-10 09:58N 47°16' W 122°23'0 0.0
2017-Oct-10 09:26N 47°16' W 122°23'0 0.7
2017-Oct-10 09:00N 47°16' W 122°23'2 4.2
2017-Oct-10 08:31N 47°17' W 122°26'1 3.0
2017-Oct-10 08:00N 47°18' W 122°27'3 5.3
2017-Oct-10 07:30N 47°21' W 122°26'3 5.7
2017-Oct-10 07:00N 47°22' W 122°23'2 4.8
2017-Oct-10 06:30N 47°25' W 122°23'3 5.9
2017-Oct-10 06:00N 47°27' W 122°25'3 5.7
2017-Oct-10 05:30N 47°30' W 122°26'3 5.8
2017-Oct-10 05:00N 47°33' W 122°27'3 5.7
2017-Oct-10 04:30N 47°36' W 122°28'3 5.6
2017-Oct-10 04:00N 47°39' W 122°28'3 5.6
2017-Oct-10 03:30N 47°41' W 122°28'3 5.9
2017-Oct-10 03:00N 47°44' W 122°27'3 5.7
2017-Oct-10 02:30N 47°47' W 122°27'3 6.0
2017-Oct-10 02:00N 47°50' W 122°28'3 6.4
2017-Oct-10 01:30N 47°53' W 122°29'3 6.5
2017-Oct-10 01:00N 47°56' W 122°32'4 7.7
2017-Oct-10 00:28N 47°59' W 122°36'20 6.8
2017-Oct-09 21:32N 48°17' W 122°48'2 6.9
2017-Oct-09 21:17N 48°19' W 122°47'2 7.0
2017-Oct-09 20:59N 48°21' W 122°46'4 6.9
2017-Oct-09 20:21N 48°25' W 122°45'3 7.7
2017-Oct-09 20:00N 48°28' W 122°45'4 8.5
2017-Oct-09 19:30N 48°32' W 122°45'4 8.1
2017-Oct-09 19:00N 48°36' W 122°45'4 7.7
2017-Oct-09 18:30N 48°40' W 122°44'3 6.4
2017-Oct-09 17:59N 48°43' W 122°45'6 0.8
2017-Oct-09 10:07N 48°49' W 122°44'1 3.0
2017-Oct-09 09:55N 48°49' W 122°44'4 6.2
2017-Oct-09 09:12N 48°44' W 122°45'1 5.4
2017-Oct-09 09:00N 48°43' W 122°44'3 6.2
2017-Oct-09 08:30N 48°40' W 122°42'3 5.2
2017-Oct-09 08:00N 48°38' W 122°44'2 3.8
2017-Oct-09 07:30N 48°36' W 122°45'2 3.3
2017-Oct-09 07:00N 48°35' W 122°45'1 2.8
2017-Oct-09 06:30N 48°33' W 122°45'2 3.5
2017-Oct-09 06:00N 48°32' W 122°45'2 3.6
2017-Oct-09 05:30N 48°30' W 122°44'2 4.5
2017-Oct-09 05:00N 48°27' W 122°44'3 6.0
2017-Oct-09 04:28N 48°24' W 122°44'3 6.8
2017-Oct-09 04:00N 48°21' W 122°45'20 6.2
2017-Oct-09 00:49N 48°02' W 122°37'3 5.7
2017-Oct-09 00:17N 47°59' W 122°35'2 5.9
2017-Oct-08 23:58N 47°58' W 122°34'3 6.1
2017-Oct-08 23:30N 47°56' W 122°30'3 6.7
2017-Oct-08 23:00N 47°53' W 122°28'4 7.3
2017-Oct-08 22:30N 47°50' W 122°27'4 7.4
2017-Oct-08 22:00N 47°46' W 122°26'4 7.5
2017-Oct-08 21:30N 47°42' W 122°27'4 7.5
2017-Oct-08 21:00N 47°39' W 122°27'4 7.6
2017-Oct-08 20:30N 47°35' W 122°26'4 7.4
2017-Oct-08 20:00N 47°31' W 122°25'4 7.4
2017-Oct-08 19:30N 47°28' W 122°24'4 7.6
2017-Oct-08 19:00N 47°24' W 122°21'3 6.5
2017-Oct-08 18:30N 47°21' W 122°23'4 7.2
2017-Oct-08 18:00N 47°19' W 122°27'2 4.7
2017-Oct-08 17:30N 47°17' W 122°25'2 3.3
2017-Oct-08 16:57N 47°16' W 122°23'0 0.0
2017-Oct-08 16:21N 47°16' W 122°23'0 0.0
2017-Oct-08 15:42N 47°16' W 122°23'0 0.0
2017-Oct-08 15:30N 47°16' W 122°23'0 0.0
2017-Oct-08 14:45N 47°16' W 122°23'0 0.0
2017-Oct-08 04:09N 47°16' W 122°23'0 0.0
2017-Oct-08 03:57N 47°16' W 122°23'0 0.0
2017-Oct-08 03:24N 47°16' W 122°23'0 0.0
2017-Oct-08 03:00N 47°16' W 122°23'0 0.0
2017-Oct-08 02:30N 47°16' W 122°23'0 0.0
2017-Oct-08 02:00N 47°16' W 122°23'0 0.0
2017-Oct-08 01:27N 47°16' W 122°23'0 0.0
2017-Oct-08 00:57N 47°16' W 122°23'0 0.0
2017-Oct-08 00:27N 47°16' W 122°23'0 0.0
2017-Oct-07 23:57N 47°16' W 122°23'0 0.0
2017-Oct-07 23:27N 47°16' W 122°23'0 0.0
2017-Oct-07 22:33N 47°16' W 122°23'0 0.0
2017-Oct-07 22:27N 47°16' W 122°23'0 0.0
2017-Oct-07 21:51N 47°16' W 122°23'0 0.0
2017-Oct-07 19:00N 47°16' W 122°23'1 1.2
2017-Oct-07 18:23N 47°16' W 122°24'0 0.0
2017-Oct-07 17:59N 47°16' W 122°24'0 0.0
2017-Oct-07 17:23N 47°16' W 122°24'0 0.0
2017-Oct-07 16:56N 47°16' W 122°24'0 0.0
2017-Oct-07 16:19N 47°16' W 122°24'0 0.0
2017-Oct-07 15:53N 47°16' W 122°24'1 1.4
2017-Oct-07 15:21N 47°16' W 122°23'1 2.0
2017-Oct-07 14:59N 47°16' W 122°24'1 0.2
2017-Oct-07 11:50N 47°16' W 122°25'0 0.0
2017-Oct-07 11:20N 47°16' W 122°25'0 0.0
2017-Oct-07 10:50N 47°16' W 122°25'0 0.0
2017-Oct-07 10:20N 47°16' W 122°25'0 0.0
2017-Oct-07 09:44N 47°16' W 122°25'0 0.0
2017-Oct-07 06:20N 47°16' W 122°25'0 0.0
2017-Oct-07 05:56N 47°16' W 122°25'0 0.0
2017-Oct-07 05:20N 47°16' W 122°25'0 0.0
2017-Oct-07 05:01N 47°16' W 122°25'1 1.8
2017-Oct-07 04:27N 47°15' W 122°26'0 0.2
2017-Oct-07 04:00N 47°16' W 122°26'1 1.8
2017-Oct-07 03:27N 47°16' W 122°25'  
Track history (hours):
 
Tides and Currents Weather Stations Pressure Air Temp Water Temp Dewpoint Dewpoint Depression Visibility Wind Speed Wind Dir Waves Ship Positions

Olympic Scout

Owner: Harley Marine Services, Inc., Seattle, WA. More information available from US FCC via Universal Licensing System and Coast Guard Vessel Documentation Center.

Last reported at 2017-Oct-17 02:00 UTC. Time now 2017-Oct-17 02:21 UTC.
Position N 47°29' W 122°26'.

Length 31 m; draft 0.3 m.

Type: Tug. MMSI: 366998440.

Date/timePositionNaut miles runAvg speedWind from/ knotsBaromVisibWave heightAir tempDewpointWater temp
2017-Oct-17 02:00N 47°29' W 122°26'3 6.8
2017-Oct-17 01:30N 47°33' W 122°27'3 6.4
2017-Oct-17 01:00N 47°36' W 122°25'3 5.5
2017-Oct-17 00:30N 47°36' W 122°21'1 2.9
2017-Oct-17 00:00N 47°34' W 122°21'0 0.3
2017-Oct-16 23:30N 47°35' W 122°21'1 1.7
2017-Oct-16 23:00N 47°35' W 122°21'1 2.1
2017-Oct-16 22:30N 47°34' W 122°21'0 0.0
2017-Oct-16 21:58N 47°34' W 122°21'0 0.0
2017-Oct-16 21:28N 47°34' W 122°21'0 0.0
2017-Oct-16 20:52N 47°34' W 122°21'0 0.0
2017-Oct-16 20:28N 47°34' W 122°21'0 0.0
2017-Oct-16 19:59N 47°34' W 122°21'0 0.0
2017-Oct-16 19:28N 47°34' W 122°21'0 0.0
2017-Oct-16 18:52N 47°34' W 122°21'0 0.0
2017-Oct-16 18:28N 47°34' W 122°21'0 0.0
2017-Oct-16 17:58N 47°34' W 122°21'0 0.0
2017-Oct-16 17:19N 47°34' W 122°21'0 0.0
2017-Oct-16 16:49N 47°34' W 122°21'0 0.0
2017-Oct-16 16:28N 47°34' W 122°21'0 0.0
2017-Oct-16 15:55N 47°34' W 122°21'0 0.0
2017-Oct-16 14:58N 47°34' W 122°21'0 0.0
2017-Oct-16 13:47N 47°34' W 122°21'0 0.0
2017-Oct-16 13:29N 47°34' W 122°21'0 0.0
2017-Oct-16 12:58N 47°34' W 122°21'0 0.0
2017-Oct-16 12:28N 47°34' W 122°21'0 0.0
2017-Oct-16 11:58N 47°34' W 122°21'0 0.0
2017-Oct-16 11:28N 47°34' W 122°21'0 0.0
2017-Oct-16 10:55N 47°34' W 122°21'0 0.0
2017-Oct-16 10:28N 47°34' W 122°21'0 0.0
2017-Oct-16 09:58N 47°34' W 122°21'0 0.0
2017-Oct-16 09:28N 47°34' W 122°21'0 0.0
2017-Oct-16 08:58N 47°34' W 122°21'0 0.0
2017-Oct-16 08:29N 47°34' W 122°21'0 0.0
2017-Oct-16 07:55N 47°34' W 122°21'0 0.0
2017-Oct-16 07:29N 47°34' W 122°21'0 0.0
2017-Oct-16 06:58N 47°34' W 122°21'0 0.0
2017-Oct-16 06:28N 47°34' W 122°21'0 0.0
2017-Oct-16 05:58N 47°34' W 122°21'0 0.0
2017-Oct-16 05:28N 47°34' W 122°21'0 0.0
2017-Oct-16 04:58N 47°34' W 122°21'0 0.0
2017-Oct-16 04:28N 47°34' W 122°21'0 0.0
2017-Oct-16 03:59N 47°34' W 122°21'0 0.0
2017-Oct-16 03:07N 47°34' W 122°21'0 0.0
2017-Oct-16 02:53N 47°34' W 122°21'0 0.0
2017-Oct-16 02:23N 47°34' W 122°21'0 0.0
2017-Oct-16 01:44N 47°34' W 122°21'0 0.0
2017-Oct-16 01:04N 47°34' W 122°21'0 0.0
2017-Oct-16 00:40N 47°34' W 122°21'0 0.0
2017-Oct-16 00:25N 47°34' W 122°21'0 0.0
2017-Oct-15 23:29N 47°34' W 122°21'0 0.0
2017-Oct-15 22:46N 47°34' W 122°21'0 0.0
2017-Oct-15 22:28N 47°34' W 122°21'0 0.0
2017-Oct-15 21:55N 47°34' W 122°21'0 0.0
2017-Oct-15 21:16N 47°34' W 122°21'0 0.0
2017-Oct-15 20:58N 47°34' W 122°21'0 0.0
2017-Oct-15 20:25N 47°34' W 122°21'0 0.0
2017-Oct-15 19:58N 47°34' W 122°21'0 0.0
2017-Oct-15 18:55N 47°34' W 122°21'0 0.0
2017-Oct-15 18:22N 47°34' W 122°21'0 0.0
2017-Oct-15 17:55N 47°34' W 122°21'0 0.0
2017-Oct-15 17:28N 47°34' W 122°21'0 0.0
2017-Oct-15 16:58N 47°34' W 122°21'0 0.0
2017-Oct-15 16:28N 47°34' W 122°21'0 0.0
2017-Oct-15 15:58N 47°34' W 122°21'0 0.0
2017-Oct-15 15:28N 47°34' W 122°21'0 0.0
2017-Oct-15 14:58N 47°34' W 122°21'0 0.0
2017-Oct-15 13:58N 47°34' W 122°21'0 0.0
2017-Oct-15 13:28N 47°34' W 122°21'0 0.0
2017-Oct-15 12:58N 47°34' W 122°21'0 0.0
2017-Oct-15 12:28N 47°34' W 122°21'0 0.0
2017-Oct-15 11:58N 47°34' W 122°21'0 0.0
2017-Oct-15 11:28N 47°34' W 122°21'0 0.0
2017-Oct-15 10:58N 47°34' W 122°21'0 0.0
2017-Oct-15 10:28N 47°34' W 122°21'0 0.0
2017-Oct-15 09:58N 47°34' W 122°21'0 0.0
2017-Oct-15 09:28N 47°34' W 122°21'0 0.0
2017-Oct-15 08:58N 47°34' W 122°21'0 0.0
2017-Oct-15 08:28N 47°34' W 122°21'0 0.0
2017-Oct-15 07:58N 47°34' W 122°21'0 0.0
2017-Oct-15 07:28N 47°34' W 122°21'0 0.0
2017-Oct-15 06:58N 47°34' W 122°21'0 0.0
2017-Oct-15 06:28N 47°34' W 122°21'0 0.0
2017-Oct-15 05:58N 47°34' W 122°21'0 0.0
2017-Oct-15 05:22N 47°34' W 122°21'0 0.0
2017-Oct-15 04:52N 47°34' W 122°21'0 0.0
2017-Oct-15 04:14N 47°34' W 122°21'0 0.0
2017-Oct-15 03:44N 47°34' W 122°21'0 0.0
2017-Oct-15 03:28N 47°34' W 122°21'0 0.0
2017-Oct-15 02:59N 47°34' W 122°21'0 0.0
2017-Oct-15 02:22N 47°34' W 122°21'0 0.0
2017-Oct-15 01:52N 47°34' W 122°21'0 0.0
2017-Oct-15 01:28N 47°34' W 122°21'0 0.0
2017-Oct-15 00:55N 47°34' W 122°21'0 0.0
2017-Oct-15 00:28N 47°34' W 122°21'0 0.0
2017-Oct-14 23:55N 47°34' W 122°21'0 0.0
2017-Oct-14 23:29N 47°34' W 122°21'0 0.0
2017-Oct-14 22:58N 47°34' W 122°21'0 0.0
2017-Oct-14 22:19N 47°34' W 122°21'0 0.0
2017-Oct-14 21:58N 47°34' W 122°21'0 0.0
2017-Oct-14 21:17N 47°34' W 122°21'0 0.0
2017-Oct-14 20:58N 47°34' W 122°21'0 0.0
2017-Oct-14 20:29N 47°34' W 122°21'0 0.0
2017-Oct-14 19:58N 47°34' W 122°21'0 0.0
2017-Oct-14 19:28N 47°34' W 122°21'0 0.0
2017-Oct-14 18:55N 47°34' W 122°21'0 0.0
2017-Oct-14 18:28N 47°34' W 122°21'0 0.0
2017-Oct-14 17:58N 47°34' W 122°21'0 0.0
2017-Oct-14 17:28N 47°34' W 122°21'0 0.0
2017-Oct-14 16:58N 47°34' W 122°21'0 0.0
2017-Oct-14 16:25N 47°34' W 122°21'0 0.0
2017-Oct-14 15:34N 47°34' W 122°21'0 0.0
2017-Oct-14 15:10N 47°34' W 122°21'0 0.0
2017-Oct-14 14:49N 47°34' W 122°21'0 0.0
2017-Oct-14 14:22N 47°34' W 122°21'0 0.0
2017-Oct-14 13:50N 47°34' W 122°21'0 0.0
2017-Oct-14 13:25N 47°34' W 122°21'0 0.0
2017-Oct-14 12:58N 47°34' W 122°21'0 0.0
2017-Oct-14 12:28N 47°34' W 122°21'0 0.0
2017-Oct-14 11:58N 47°34' W 122°21'0 0.0
2017-Oct-14 11:28N 47°34' W 122°21'0 0.0
2017-Oct-14 10:52N 47°34' W 122°21'0 0.0
2017-Oct-14 10:22N 47°34' W 122°21'0 0.0
2017-Oct-14 09:58N 47°34' W 122°21'0 0.0
2017-Oct-14 09:28N 47°34' W 122°21'0 0.0
2017-Oct-14 08:52N 47°34' W 122°21'0 0.0
2017-Oct-14 08:28N 47°34' W 122°21'0 0.0
2017-Oct-14 07:59N 47°34' W 122°21'0 0.0
2017-Oct-14 07:28N 47°34' W 122°21'0 0.0
2017-Oct-14 06:58N 47°34' W 122°21'0 0.0
2017-Oct-14 06:28N 47°34' W 122°21'0 0.1
2017-Oct-14 05:55N 47°34' W 122°21'0 0.1
2017-Oct-14 05:28N 47°34' W 122°21'0 0.0
2017-Oct-14 04:55N 47°34' W 122°21'0 0.0
2017-Oct-14 04:28N 47°34' W 122°21'0 0.0
2017-Oct-14 03:59N 47°34' W 122°21'0 0.0
2017-Oct-14 03:28N 47°34' W 122°21'0 0.0
2017-Oct-14 02:59N 47°34' W 122°21'0 0.0
2017-Oct-14 02:28N 47°34' W 122°21'0 0.0
2017-Oct-13 23:16N 47°34' W 122°21'0 0.0
2017-Oct-13 22:58N 47°34' W 122°21'0 0.0
2017-Oct-13 22:28N 47°34' W 122°21'0 0.0
2017-Oct-13 21:58N 47°34' W 122°21'0 0.0
2017-Oct-13 21:28N 47°34' W 122°21'0 0.0
2017-Oct-13 20:58N 47°34' W 122°21'0 0.0
2017-Oct-13 20:28N 47°34' W 122°21'0 0.0
2017-Oct-13 19:58N 47°34' W 122°21'0 0.0
2017-Oct-13 19:29N 47°34' W 122°21'0 0.0
2017-Oct-13 18:58N 47°34' W 122°21'0 0.0
2017-Oct-13 18:29N 47°34' W 122°21'0 0.0
2017-Oct-13 17:58N 47°34' W 122°21'0 0.0
2017-Oct-13 17:25N 47°34' W 122°21'0 0.2
2017-Oct-13 16:58N 47°34' W 122°21'0 0.0
2017-Oct-13 16:28N 47°34' W 122°21'0 0.0
2017-Oct-13 15:59N 47°34' W 122°21'0 0.0
2017-Oct-13 15:28N 47°34' W 122°21'0 0.1
2017-Oct-13 15:00N 47°34' W 122°21'1 1.0
2017-Oct-13 14:30N 47°35' W 122°21'0 0.0
2017-Oct-13 14:00N 47°35' W 122°21'0 0.0
2017-Oct-13 13:30N 47°35' W 122°21'0 0.0
2017-Oct-13 13:00N 47°35' W 122°21'0 0.0
2017-Oct-13 12:30N 47°35' W 122°21'0 0.1
2017-Oct-13 12:00N 47°35' W 122°21'0 0.1
2017-Oct-13 11:30N 47°35' W 122°21'0 0.1
2017-Oct-13 11:00N 47°35' W 122°21'0 0.0
2017-Oct-13 10:30N 47°35' W 122°21'0 0.0
2017-Oct-13 10:00N 47°35' W 122°21'0 0.2
2017-Oct-13 09:30N 47°35' W 122°21'1 2.2
2017-Oct-13 09:00N 47°36' W 122°22'3 5.8
2017-Oct-13 08:31N 47°35' W 122°26'4 7.1
2017-Oct-13 08:00N 47°31' W 122°25'4 7.1
2017-Oct-13 07:30N 47°28' W 122°24'4 7.2
2017-Oct-13 07:00N 47°25' W 122°22'3 6.0
2017-Oct-13 06:30N 47°22' W 122°23'3 6.7
2017-Oct-13 06:00N 47°19' W 122°26'2 4.3
2017-Oct-13 05:30N 47°17' W 122°26'1 2.7
2017-Oct-13 05:00N 47°17' W 122°24'0 0.9
2017-Oct-13 04:30N 47°17' W 122°23'0 0.0
2017-Oct-13 04:00N 47°17' W 122°23'0 0.0
2017-Oct-13 03:30N 47°17' W 122°23'0 0.0
2017-Oct-13 03:00N 47°17' W 122°23'0 0.0
2017-Oct-13 02:30N 47°17' W 122°23'0 0.0
2017-Oct-13 02:00N 47°17' W 122°23'0 0.0
2017-Oct-13 01:30N 47°17' W 122°23'0 0.0
2017-Oct-13 01:00N 47°17' W 122°23'0 0.0
2017-Oct-13 00:29N 47°17' W 122°23'0 0.0
2017-Oct-12 23:56N 47°17' W 122°23'0 0.1
2017-Oct-12 23:30N 47°17' W 122°23'0 0.0
2017-Oct-12 22:59N 47°17' W 122°23'0 0.0
2017-Oct-12 22:30N 47°17' W 122°23'0 0.0
2017-Oct-12 22:00N 47°17' W 122°23'0 0.0
2017-Oct-12 21:30N 47°17' W 122°23'0 0.0
2017-Oct-12 20:59N 47°17' W 122°23'0 0.0
2017-Oct-12 20:29N 47°17' W 122°23'1 1.3
2017-Oct-12 20:00N 47°17' W 122°24'0 0.8
2017-Oct-12 19:30N 47°17' W 122°25'0 0.1
2017-Oct-12 19:00N 47°17' W 122°25'0 0.1
2017-Oct-12 18:30N 47°17' W 122°25'0 0.0
2017-Oct-12 18:00N 47°17' W 122°25'0 0.0
2017-Oct-12 17:30N 47°17' W 122°25'0 0.0
2017-Oct-12 17:00N 47°17' W 122°25'0 0.0
2017-Oct-12 16:30N 47°17' W 122°25'0 0.0
2017-Oct-12 16:00N 47°17' W 122°25'0 0.0
2017-Oct-12 15:30N 47°17' W 122°25'0 0.0
2017-Oct-12 15:00N 47°17' W 122°25'0 0.0
2017-Oct-12 14:30N 47°17' W 122°25'0 0.0
2017-Oct-12 14:00N 47°17' W 122°25'0 0.1
2017-Oct-12 13:30N 47°17' W 122°25'0 0.1
2017-Oct-12 13:00N 47°17' W 122°25'0 0.0
2017-Oct-12 12:30N 47°17' W 122°25'0 0.0
2017-Oct-12 12:00N 47°17' W 122°25'0 0.0
2017-Oct-12 11:30N 47°17' W 122°25'0 0.0
2017-Oct-12 11:00N 47°17' W 122°25'0 0.0
2017-Oct-12 10:30N 47°17' W 122°25'0 0.0
2017-Oct-12 10:00N 47°17' W 122°25'0 0.1
2017-Oct-12 09:30N 47°17' W 122°25'0 0.9
2017-Oct-12 09:00N 47°17' W 122°25'1 1.4
2017-Oct-12 08:30N 47°16' W 122°25'0 0.0
2017-Oct-12 08:00N 47°16' W 122°25'0 0.1
2017-Oct-12 07:30N 47°16' W 122°25'0 0.1
2017-Oct-12 07:00N 47°16' W 122°25'0 0.1
2017-Oct-12 06:30N 47°16' W 122°25'0 0.0
2017-Oct-12 06:00N 47°16' W 122°25'0 0.1
2017-Oct-12 05:30N 47°16' W 122°25'0 0.1
2017-Oct-12 05:00N 47°16' W 122°25'0 0.1
2017-Oct-12 04:30N 47°16' W 122°25'0 0.1
2017-Oct-12 04:00N 47°16' W 122°25'0 0.0
2017-Oct-12 03:30N 47°16' W 122°25'0 0.0
2017-Oct-12 03:00N 47°16' W 122°25'0 0.1
2017-Oct-12 02:30N 47°16' W 122°25'0 0.0
2017-Oct-12 02:00N 47°16' W 122°25'0 0.1
2017-Oct-12 01:30N 47°16' W 122°25'0 0.0
2017-Oct-12 00:59N 47°16' W 122°25'1 1.2
2017-Oct-12 00:30N 47°16' W 122°25'2 3.3
2017-Oct-12 00:00N 47°16' W 122°23'0 1.0
2017-Oct-11 23:30N 47°16' W 122°24'0 0.3
2017-Oct-11 23:00N 47°16' W 122°24'0 0.0
2017-Oct-11 22:31N 47°16' W 122°24'0 0.0
2017-Oct-11 21:58N 47°16' W 122°24'0 0.0
2017-Oct-11 21:31N 47°16' W 122°24'0 0.0
2017-Oct-11 21:01N 47°16' W 122°24'1 1.1
2017-Oct-11 20:28N 47°16' W 122°23'0 0.0
2017-Oct-11 19:58N 47°16' W 122°23'0 0.0
2017-Oct-11 19:28N 47°16' W 122°23'0 0.0
2017-Oct-11 18:58N 47°16' W 122°23'0 0.0
2017-Oct-11 18:28N 47°16' W 122°23'0 0.0
2017-Oct-11 17:58N 47°16' W 122°23'0 0.0
2017-Oct-11 17:28N 47°16' W 122°23'0 0.0
2017-Oct-11 16:58N 47°16' W 122°23'0 0.0
2017-Oct-11 00:00N 47°16' W 122°23'0 0.0
2017-Oct-10 23:30N 47°16' W 122°23'0 0.0
2017-Oct-10 23:00N 47°16' W 122°23'0 0.0
2017-Oct-10 22:30N 47°16' W 122°23'0 0.0
2017-Oct-10 22:00N 47°16' W 122°23'1 1.5
2017-Oct-10 21:26N 47°16' W 122°24'0 0.0
2017-Oct-10 20:59N 47°16' W 122°24'0 0.0
2017-Oct-10 20:29N 47°16' W 122°24'0 0.0
2017-Oct-10 19:56N 47°16' W 122°24'0 0.0
2017-Oct-10 19:29N 47°16' W 122°24'0 0.0
2017-Oct-10 18:56N 47°16' W 122°24'0 0.0
2017-Oct-10 18:29N 47°16' W 122°24'0 0.0
2017-Oct-10 17:59N 47°16' W 122°24'0 0.0
2017-Oct-10 17:29N 47°16' W 122°24'1 1.3
2017-Oct-10 16:50N 47°16' W 122°23'0 0.0
2017-Oct-10 16:26N 47°16' W 122°23'0 0.0
2017-Oct-10 15:47N 47°16' W 122°23'0 0.0
2017-Oct-10 15:20N 47°16' W 122°23'0 0.0
2017-Oct-10 14:53N 47°16' W 122°23'0 0.0
2017-Oct-10 13:44N 47°16' W 122°23'0 0.0
2017-Oct-10 13:25N 47°16' W 122°23'0 0.0
2017-Oct-10 12:44N 47°16' W 122°23'0 0.0
2017-Oct-10 12:29N 47°16' W 122°23'0 0.0
2017-Oct-10 11:59N 47°16' W 122°23'0 0.0
2017-Oct-10 11:28N 47°16' W 122°23'0 0.0
2017-Oct-10 10:17N 47°16' W 122°23'0 0.0
2017-Oct-10 09:58N 47°16' W 122°23'0 0.0
2017-Oct-10 09:26N 47°16' W 122°23'0 0.7
2017-Oct-10 09:00N 47°16' W 122°23'2 4.2
2017-Oct-10 08:31N 47°17' W 122°26'1 3.0
2017-Oct-10 08:00N 47°18' W 122°27'3 5.3
2017-Oct-10 07:30N 47°21' W 122°26'3 5.7
2017-Oct-10 07:00N 47°22' W 122°23'2 4.8
2017-Oct-10 06:30N 47°25' W 122°23'3 5.9
2017-Oct-10 06:00N 47°27' W 122°25'3 5.7
2017-Oct-10 05:30N 47°30' W 122°26'3 5.8
2017-Oct-10 05:00N 47°33' W 122°27'3 5.7
2017-Oct-10 04:30N 47°36' W 122°28'3 5.6
2017-Oct-10 04:00N 47°39' W 122°28'3 5.6
2017-Oct-10 03:30N 47°41' W 122°28'3 5.9
2017-Oct-10 03:00N 47°44' W 122°27'3 5.7
2017-Oct-10 02:30N 47°47' W 122°27'3 6.0
2017-Oct-10 02:00N 47°50' W 122°28'3 6.4
2017-Oct-10 01:30N 47°53' W 122°29'3 6.5
2017-Oct-10 01:00N 47°56' W 122°32'4 7.7
2017-Oct-10 00:28N 47°59' W 122°36'20 6.8
2017-Oct-09 21:32N 48°17' W 122°48'2 6.9
2017-Oct-09 21:17N 48°19' W 122°47'2 7.0
2017-Oct-09 20:59N 48°21' W 122°46'4 6.9
2017-Oct-09 20:21N 48°25' W 122°45'3 7.7
2017-Oct-09 20:00N 48°28' W 122°45'4 8.5
2017-Oct-09 19:30N 48°32' W 122°45'4 8.1
2017-Oct-09 19:00N 48°36' W 122°45'4 7.7
2017-Oct-09 18:30N 48°40' W 122°44'3 6.4
2017-Oct-09 17:59N 48°43' W 122°45'6 0.8
2017-Oct-09 10:07N 48°49' W 122°44'1 3.0
2017-Oct-09 09:55N 48°49' W 122°44'4 6.2
2017-Oct-09 09:12N 48°44' W 122°45'1 5.4
2017-Oct-09 09:00N 48°43' W 122°44'3 6.2
2017-Oct-09 08:30N 48°40' W 122°42'3 5.2
2017-Oct-09 08:00N 48°38' W 122°44'2 3.8
2017-Oct-09 07:30N 48°36' W 122°45'2 3.3
2017-Oct-09 07:00N 48°35' W 122°45'1 2.8
2017-Oct-09 06:30N 48°33' W 122°45'2 3.5
2017-Oct-09 06:00N 48°32' W 122°45'2 3.6
2017-Oct-09 05:30N 48°30' W 122°44'2 4.5
2017-Oct-09 05:00N 48°27' W 122°44'3 6.0
2017-Oct-09 04:28N 48°24' W 122°44'3 6.8
2017-Oct-09 04:00N 48°21' W 122°45'20 6.2
2017-Oct-09 00:49N 48°02' W 122°37'3 5.7
2017-Oct-09 00:17N 47°59' W 122°35'2 5.9
2017-Oct-08 23:58N 47°58' W 122°34'3 6.1
2017-Oct-08 23:30N 47°56' W 122°30'3 6.7
2017-Oct-08 23:00N 47°53' W 122°28'4 7.3
2017-Oct-08 22:30N 47°50' W 122°27'4 7.4
2017-Oct-08 22:00N 47°46' W 122°26'4 7.5
2017-Oct-08 21:30N 47°42' W 122°27'4 7.5
2017-Oct-08 21:00N 47°39' W 122°27'4 7.6
2017-Oct-08 20:30N 47°35' W 122°26'4 7.4
2017-Oct-08 20:00N 47°31' W 122°25'4 7.4
2017-Oct-08 19:30N 47°28' W 122°24'4 7.6
2017-Oct-08 19:00N 47°24' W 122°21'3 6.5
2017-Oct-08 18:30N 47°21' W 122°23'4 7.2
2017-Oct-08 18:00N 47°19' W 122°27'2 4.7
2017-Oct-08 17:30N 47°17' W 122°25'2 3.3
2017-Oct-08 16:57N 47°16' W 122°23'0 0.0
2017-Oct-08 16:21N 47°16' W 122°23'0 0.0
2017-Oct-08 15:42N 47°16' W 122°23'0 0.0
2017-Oct-08 15:30N 47°16' W 122°23'0 0.0
2017-Oct-08 14:45N 47°16' W 122°23'0 0.0
2017-Oct-08 04:09N 47°16' W 122°23'0 0.0
2017-Oct-08 03:57N 47°16' W 122°23'0 0.0
2017-Oct-08 03:24N 47°16' W 122°23'0 0.0
2017-Oct-08 03:00N 47°16' W 122°23'0 0.0
2017-Oct-08 02:30N 47°16' W 122°23'0 0.0
2017-Oct-08 02:00N 47°16' W 122°23'0 0.0
2017-Oct-08 01:27N 47°16' W 122°23'0 0.0
2017-Oct-08 00:57N 47°16' W 122°23'0 0.0
2017-Oct-08 00:27N 47°16' W 122°23'0 0.0
2017-Oct-07 23:57N 47°16' W 122°23'0 0.0
2017-Oct-07 23:27N 47°16' W 122°23'0 0.0
2017-Oct-07 22:33N 47°16' W 122°23'0 0.0
2017-Oct-07 22:27N 47°16' W 122°23'0 0.0
2017-Oct-07 21:51N 47°16' W 122°23'0 0.0
2017-Oct-07 19:00N 47°16' W 122°23'1 1.2
2017-Oct-07 18:23N 47°16' W 122°24'0 0.0
2017-Oct-07 17:59N 47°16' W 122°24'0 0.0
2017-Oct-07 17:23N 47°16' W 122°24'0 0.0
2017-Oct-07 16:56N 47°16' W 122°24'0 0.0
2017-Oct-07 16:19N 47°16' W 122°24'0 0.0
2017-Oct-07 15:53N 47°16' W 122°24'1 1.4
2017-Oct-07 15:21N 47°16' W 122°23'1 2.0
2017-Oct-07 14:59N 47°16' W 122°24'1 0.2
2017-Oct-07 11:50N 47°16' W 122°25'0 0.0
2017-Oct-07 11:20N 47°16' W 122°25'0 0.0
2017-Oct-07 10:50N 47°16' W 122°25'0 0.0
2017-Oct-07 10:20N 47°16' W 122°25'0 0.0
2017-Oct-07 09:44N 47°16' W 122°25'0 0.0
2017-Oct-07 06:20N 47°16' W 122°25'0 0.0
2017-Oct-07 05:56N 47°16' W 122°25'0 0.0
2017-Oct-07 05:20N 47°16' W 122°25'0 0.0
2017-Oct-07 05:01N 47°16' W 122°25'1 1.8
2017-Oct-07 04:27N 47°15' W 122°26'0 0.2
2017-Oct-07 04:00N 47°16' W 122°26'1 1.8
2017-Oct-07 03:27N 47°16' W 122°25'  

Dump ship's entire track history